Time;durP1;ratioP1;P1;durP2;ratioP2;P2;SDS_P1;SDS_P2;PMS_P1;PMS_P2;Temp;Humidity;BMP_temperature;BMP_pressure;BME280_temperature;BME280_humidity;BME280_pressure;Samples;Min_cycle;Max_cycle;Signal;HPM_P1;HPM_P2
2023/08/26 00:02:21;;;;;;;12.20;7.00;;;;;;;24.07;57.84;100865.35;107355;1254;109854;-67
2023/08/26 00:04:49;;;;;;;23.80;8.80;;;;;;;24.03;57.86;100864.64;107347;1254;108106;-67
2023/08/26 00:07:17;;;;;;;22.90;7.70;;;;;;;23.97;57.32;100860.45;107390;1257;97819;-67
2023/08/26 00:09:46;;;;;;;22.80;7.80;;;;;;;23.94;57.03;100858.21;107352;1257;97714;-67
2023/08/26 00:12:14;;;;;;;23.80;8.10;;;;;;;23.95;57.25;100859.19;107359;1257;112995;-65
2023/08/26 00:14:42;;;;;;;32.90;8.60;;;;;;;23.95;57.38;100853.39;107410;1258;109216;-66
2023/08/26 00:17:10;;;;;;;18.20;7.40;;;;;;;23.92;57.67;100854.77;107383;1254;107485;-67
2023/08/26 00:19:38;;;;;;;29.10;8.00;;;;;;;23.87;57.98;100853.56;107355;1254;97825;-65
2023/08/26 00:22:06;;;;;;;23.00;7.60;;;;;;;23.83;58.00;100858.54;107363;1257;97722;-67
2023/08/26 00:24:35;;;;;;;16.50;6.90;;;;;;;23.80;57.95;100865.69;107372;1257;111284;-69
2023/08/26 00:27:04;;;;;;;22.50;7.50;;;;;;;23.79;58.10;100860.25;107342;1258;109240;-68
2023/08/26 00:29:32;;;;;;;20.70;6.90;;;;;;;23.77;58.43;100858.48;107436;1254;107436;-67
2023/08/26 00:32:00;;;;;;;23.90;7.50;;;;;;;23.77;58.69;100857.56;107224;1257;97882;-67
2023/08/26 00:34:29;;;;;;;26.10;7.20;;;;;;;23.78;58.80;100856.71;107361;1257;97967;-67
2023/08/26 00:36:58;;;;;;;15.50;6.90;;;;;;;23.76;59.27;100860.73;107370;1257;111136;-66
2023/08/26 00:39:27;;;;;;;18.20;7.00;;;;;;;23.72;59.20;100861.60;107316;1254;108952;-68
2023/08/26 00:41:55;;;;;;;18.90;7.20;;;;;;;23.67;59.43;100858.39;107398;1257;107656;-67
2023/08/26 00:44:24;;;;;;;22.60;7.50;;;;;;;23.60;59.29;100853.86;107388;1257;97861;-67
2023/08/26 00:46:53;;;;;;;22.00;7.70;;;;;;;23.57;59.43;100857.44;107337;1260;97705;-67
2023/08/26 00:49:23;;;;;;;27.80;8.10;;;;;;;23.54;59.90;100856.40;107256;1257;112107;-66
2023/08/26 00:51:52;;;;;;;18.10;7.90;;;;;;;23.49;59.79;100855.97;107344;1257;109087;-66
2023/08/26 00:54:21;;;;;;;22.60;8.70;;;;;;;23.44;60.11;100857.55;107298;1257;107091;-67
2023/08/26 00:56:50;;;;;;;21.10;6.90;;;;;;;23.43;60.43;100855.41;107379;1257;97841;-68
2023/08/26 00:59:18;;;;;;;17.20;7.20;;;;;;;23.36;60.51;100856.45;107445;1256;97869;-66
2023/08/26 01:01:47;;;;;;;18.40;8.20;;;;;;;23.31;60.65;100856.45;107367;1257;112097;-68
2023/08/26 01:04:16;;;;;;;16.30;7.10;;;;;;;23.27;60.67;100855.84;107297;1256;109817;-66
2023/08/26 01:06:44;;;;;;;15.00;6.70;;;;;;;23.23;60.93;100857.37;107367;1256;107442;-66
2023/08/26 01:09:12;;;;;;;20.20;7.20;;;;;;;23.19;61.52;100852.48;107196;1255;97813;-66
2023/08/26 01:12:09;;;;;;;17.50;7.50;;;;;;;23.13;61.28;100849.23;107373;1257;97812;-69
2023/08/26 01:14:44;;;;;;;19.80;7.10;;;;;;;23.10;61.21;100846.08;107369;1257;110407;-68
2023/08/26 01:17:14;;;;;;;13.60;7.60;;;;;;;23.08;61.14;100853.56;107412;1256;109097;-67
2023/08/26 01:19:44;;;;;;;19.00;7.30;;;;;;;23.06;61.30;100856.09;107387;1257;107578;-68
2023/08/26 01:22:19;;;;;;;22.20;8.40;;;;;;;23.03;61.29;100859.25;107241;1256;98449;-67
2023/08/26 01:24:48;;;;;;;22.70;7.70;;;;;;;22.99;61.37;100857.01;107219;1254;97854;-67
2023/08/26 01:27:16;;;;;;;21.90;7.70;;;;;;;22.98;61.59;100856.39;107363;1257;112180;-66
2023/08/26 01:29:45;;;;;;;22.40;7.80;;;;;;;22.94;61.71;100859.10;107286;1254;110371;-69
2023/08/26 01:32:42;;;;;;;25.60;8.40;;;;;;;22.88;62.18;100860.47;107367;1257;108744;-67
2023/08/26 01:35:22;;;;;;;16.30;7.80;;;;;;;22.78;62.89;100860.67;107362;1257;97857;-64
2023/08/26 01:37:53;;;;;;;21.10;8.30;;;;;;;22.71;62.72;100862.08;107255;1254;97864;-66
2023/08/26 01:40:24;;;;;;;28.90;9.10;;;;;;;22.64;62.69;100858.00;107369;1257;111876;-67
2023/08/26 01:42:54;;;;;;;22.70;7.80;;;;;;;22.59;62.67;100856.76;107363;1257;110321;-67
2023/08/26 01:45:23;;;;;;;24.90;9.10;;;;;;;22.57;62.69;100857.59;107379;1257;108681;-67
2023/08/26 01:47:51;;;;;;;24.80;7.90;;;;;;;22.57;62.87;100852.45;107398;1254;97872;-67
2023/08/26 01:50:20;;;;;;;22.70;8.30;;;;;;;22.56;62.82;100852.50;107343;1257;97745;-67
2023/08/26 01:52:48;;;;;;;15.70;7.50;;;;;;;22.52;63.28;100852.20;107342;1256;111650;-66
2023/08/26 01:55:16;;;;;;;16.70;7.50;;;;;;;22.46;63.26;100855.16;107169;1262;109213;-66
2023/08/26 01:57:45;;;;;;;18.90;7.70;;;;;;;22.42;63.40;100854.84;107234;1254;107962;-67
2023/08/26 02:00:14;;;;;;;27.40;8.60;;;;;;;22.38;63.54;100853.16;107163;1256;97856;-67
2023/08/26 02:02:42;;;;;;;30.00;8.80;;;;;;;22.34;63.59;100852.24;107410;1254;98499;-67
2023/08/26 02:05:11;;;;;;;25.60;8.90;;;;;;;22.25;63.69;100851.11;107415;1257;111247;-69
2023/08/26 02:07:40;;;;;;;31.20;8.50;;;;;;;22.25;63.85;100850.32;107210;1254;109714;-66
2023/08/26 02:10:09;;;;;;;28.70;9.00;;;;;;;22.24;63.89;100853.65;107215;1254;107328;-66
2023/08/26 02:12:37;;;;;;;31.60;8.10;;;;;;;22.21;64.02;100856.10;107380;1256;97863;-65
2023/08/26 02:15:06;;;;;;;21.80;8.30;;;;;;;22.18;64.03;100855.55;107389;1257;97726;-66
2023/08/26 02:17:34;;;;;;;20.60;8.90;;;;;;;22.17;63.96;100854.78;107365;1254;112069;-67
2023/08/26 02:20:05;;;;;;;25.50;8.50;;;;;;;22.15;64.07;100856.47;107255;1254;109316;-66
2023/08/26 02:22:34;;;;;;;30.70;8.70;;;;;;;22.12;64.11;100861.75;107275;1254;108660;-65
2023/08/26 02:25:03;;;;;;;23.70;8.70;;;;;;;22.06;64.57;100870.52;107214;1257;97832;-66
2023/08/26 02:27:31;;;;;;;17.10;7.70;;;;;;;22.00;64.56;100871.73;107311;1257;97862;-67
2023/08/26 02:29:59;;;;;;;21.90;9.20;;;;;;;21.99;64.66;100872.70;107336;1257;111451;-67
2023/08/26 02:32:28;;;;;;;24.50;9.10;;;;;;;22.00;64.64;100873.25;107205;1257;109726;-65
2023/08/26 02:34:56;;;;;;;25.70;9.00;;;;;;;21.95;64.86;100872.89;107374;1254;108358;-67
2023/08/26 02:37:25;;;;;;;24.30;8.00;;;;;;;21.88;65.25;100874.58;107335;1254;97831;-67
2023/08/26 02:39:55;;;;;;;25.80;9.20;;;;;;;21.82;65.81;100870.15;107364;1257;97724;-68
2023/08/26 02:42:24;;;;;;;26.60;8.20;;;;;;;21.78;65.56;100873.67;107350;1257;112157;-67
2023/08/26 02:44:53;;;;;;;17.70;8.40;;;;;;;21.75;65.48;100871.56;107363;1256;110188;-66
2023/08/26 02:47:21;;;;;;;19.20;8.40;;;;;;;21.76;65.86;100872.71;107251;1254;108149;-66
2023/08/26 02:49:51;;;;;;;30.10;8.50;;;;;;;21.76;65.42;100874.61;107382;1254;97813;-66
2023/08/26 02:52:19;;;;;;;21.70;8.30;;;;;;;21.76;65.54;100873.55;107284;1257;97924;-65
2023/08/26 02:54:47;;;;;;;16.40;8.40;;;;;;;21.73;65.63;100880.50;107242;1257;113019;-67
2023/08/26 02:57:16;;;;;;;19.70;8.20;;;;;;;21.66;65.29;100883.98;107421;1254;109306;-66
2023/08/26 02:59:45;;;;;;;21.80;8.10;;;;;;;21.60;65.70;100882.33;107369;1257;108319;-66
2023/08/26 03:02:13;;;;;;;22.70;8.70;;;;;;;21.57;66.01;100884.16;107171;1256;97864;-69
2023/08/26 03:04:43;;;;;;;23.50;8.60;;;;;;;21.52;66.01;100882.65;107256;1256;97826;-67
2023/08/26 03:07:11;;;;;;;28.00;8.60;;;;;;;21.50;66.20;100888.46;107266;1254;111001;-67
2023/08/26 03:09:39;;;;;;;27.60;8.40;;;;;;;21.45;66.36;100889.95;107251;1260;110133;-67
2023/08/26 03:12:07;;;;;;;31.60;8.80;;;;;;;21.40;66.34;100896.55;107342;1258;107553;-66
2023/08/26 03:14:36;;;;;;;33.60;8.10;;;;;;;21.38;66.71;100900.04;107321;1254;97895;-67
2023/08/26 03:17:05;;;;;;;21.80;8.60;;;;;;;21.36;67.16;100901.42;107347;1254;97771;-67
2023/08/26 03:19:33;;;;;;;22.20;8.10;;;;;;;21.31;67.67;100899.71;107151;1257;112729;-68
2023/08/26 03:22:01;;;;;;;16.20;8.70;;;;;;;21.30;67.37;100899.54;107211;1260;109720;-68
2023/08/26 03:24:30;;;;;;;28.50;9.50;;;;;;;21.31;67.57;100900.48;107323;1257;108281;-68
2023/08/26 03:26:58;;;;;;;15.50;8.60;;;;;;;21.32;67.36;100900.81;107331;1254;97850;-67
2023/08/26 03:29:26;;;;;;;27.20;9.20;;;;;;;21.33;67.39;100905.33;107221;1257;97770;-66
2023/08/26 03:31:54;;;;;;;17.90;8.70;;;;;;;21.32;67.26;100901.78;107392;1254;110805;-68
2023/08/26 03:34:25;;;;;;;21.70;8.90;;;;;;;21.33;67.59;100903.84;107331;1257;109065;-67
2023/08/26 03:36:54;;;;;;;23.30;9.00;;;;;;;21.34;67.50;100898.17;107372;1257;107252;-67
2023/08/26 03:39:22;;;;;;;17.70;8.10;;;;;;;21.37;67.55;100896.70;107254;1256;97855;-68
2023/08/26 03:41:50;;;;;;;16.70;7.90;;;;;;;21.39;67.45;100897.13;107407;1254;98370;-67
2023/08/26 03:44:19;;;;;;;21.50;8.50;;;;;;;21.40;67.67;100896.80;107244;1260;111823;-67
2023/08/26 03:46:48;;;;;;;21.10;8.70;;;;;;;21.42;67.57;100900.77;107354;1254;109604;-66
2023/08/26 03:49:17;;;;;;;20.40;8.50;;;;;;;21.43;67.45;100900.77;107364;1257;107743;-67
2023/08/26 03:51:45;;;;;;;29.10;9.20;;;;;;;21.45;67.58;100899.01;107263;1256;97834;-67
2023/08/26 03:54:13;;;;;;;26.50;9.10;;;;;;;21.46;67.41;100893.84;107379;1257;97995;-67
2023/08/26 03:56:42;;;;;;;17.50;8.00;;;;;;;21.49;67.52;100896.45;107260;1254;110896;-67
2023/08/26 03:59:12;;;;;;;24.70;8.60;;;;;;;21.49;67.45;100900.08;107401;1255;109690;-67
2023/08/26 04:01:40;;;;;;;31.90;8.90;;;;;;;21.49;67.24;100902.85;107346;1257;108633;-66
2023/08/26 04:04:09;;;;;;;21.20;8.10;;;;;;;21.46;67.18;100905.63;107389;1254;97841;-67
2023/08/26 04:06:37;;;;;;;31.10;9.10;;;;;;;21.41;67.33;100904.17;107298;1257;98391;-67
2023/08/26 04:09:06;;;;;;;28.30;9.10;;;;;;;21.39;67.41;100904.70;107366;1257;112012;-68
2023/08/26 04:11:34;;;;;;;29.90;8.60;;;;;;;21.39;67.69;100908.63;107144;1257;109795;-66
2023/08/26 04:14:02;;;;;;;28.70;8.80;;;;;;;21.42;67.97;100909.70;107364;1256;108783;-66
2023/08/26 04:16:31;;;;;;;26.40;8.70;;;;;;;21.43;67.94;100909.10;107366;1257;97916;-67
2023/08/26 04:18:59;;;;;;;24.80;8.40;;;;;;;21.42;67.96;100911.55;107390;1254;97736;-67
2023/08/26 04:21:28;;;;;;;19.10;9.20;;;;;;;21.42;67.93;100916.81;107389;1254;112060;-65
2023/08/26 04:23:56;;;;;;;21.60;9.20;;;;;;;21.43;67.74;100918.71;107363;1257;107804;-67
2023/08/26 04:26:24;;;;;;;23.70;9.40;;;;;;;21.45;67.97;100921.37;107252;1254;108237;-66
2023/08/26 04:28:52;;;;;;;23.90;8.80;;;;;;;21.47;67.89;100922.64;107395;1257;97871;-67
2023/08/26 04:31:21;;;;;;;24.10;8.80;;;;;;;21.50;68.01;100922.52;107392;1254;97748;-67
2023/08/26 04:33:51;;;;;;;16.20;8.70;;;;;;;21.52;68.10;100919.79;107226;1257;111770;-68
2023/08/26 04:36:20;;;;;;;23.30;8.80;;;;;;;21.50;68.02;100926.73;107308;1254;108543;-65
2023/08/26 04:38:48;;;;;;;26.80;9.50;;;;;;;21.52;68.08;100929.81;107367;1257;108295;-67
2023/08/26 04:41:17;;;;;;;21.10;8.60;;;;;;;21.55;67.94;100930.12;107124;1256;97898;-68
2023/08/26 04:43:47;;;;;;;30.20;12.10;;;;;;;21.57;67.85;100927.41;107390;1257;97824;-68
2023/08/26 04:46:16;;;;;;;26.30;10.00;;;;;;;21.66;67.68;100923.27;107411;1254;111937;-66
2023/08/26 04:48:45;;;;;;;20.60;9.50;;;;;;;21.72;67.30;100925.64;107372;1257;109004;-67
2023/08/26 04:51:14;;;;;;;19.00;9.50;;;;;;;21.79;67.32;100922.88;107390;1256;108143;-67
2023/08/26 04:53:42;;;;;;;32.00;9.70;;;;;;;21.88;67.16;100924.50;107409;1257;97871;-66
2023/08/26 04:56:10;;;;;;;23.10;9.40;;;;;;;21.98;67.17;100925.16;107166;1257;98918;-66
2023/08/26 04:58:38;;;;;;;30.40;10.30;;;;;;;22.04;66.90;100927.58;107190;1254;111692;-66
2023/08/26 05:01:08;;;;;;;25.80;11.00;;;;;;;22.11;66.60;100929.19;107424;1257;109989;-66
2023/08/26 05:03:37;;;;;;;18.00;10.90;;;;;;;22.20;66.25;100930.07;107176;1257;107048;-66
2023/08/26 05:06:05;;;;;;;33.30;9.50;;;;;;;22.27;65.11;100927.96;107381;1254;97809;-67
2023/08/26 05:08:33;;;;;;;25.10;9.80;;;;;;;22.28;64.00;100927.88;107418;1254;97828;-67
2023/08/26 05:11:03;;;;;;;27.20;9.90;;;;;;;22.29;63.51;100925.27;107235;1255;113222;-66
2023/08/26 05:13:31;;;;;;;27.80;9.00;;;;;;;22.35;63.49;100924.17;107348;1254;110080;-66
2023/08/26 05:15:59;;;;;;;20.30;8.40;;;;;;;22.42;63.29;100923.11;107397;1254;107634;-64
2023/08/26 05:18:29;;;;;;;17.70;7.90;;;;;;;22.48;62.59;100920.70;107389;1254;97843;-67
2023/08/26 05:20:57;;;;;;;23.90;11.40;;;;;;;22.54;62.20;100924.41;107377;1256;97846;-67
2023/08/26 05:23:25;;;;;;;27.90;10.70;;;;;;;22.56;61.32;100919.56;107211;1257;112168;-67
2023/08/26 05:25:53;;;;;;;28.30;15.20;;;;;;;22.56;60.80;100917.27;107334;1257;109684;-67
2023/08/26 05:28:22;;;;;;;20.30;8.00;;;;;;;22.61;60.94;100919.30;107355;1257;108779;-67
2023/08/26 05:30:50;;;;;;;34.20;9.80;;;;;;;22.68;60.85;100921.11;107406;1254;97946;-67
2023/08/26 05:33:19;;;;;;;23.40;8.60;;;;;;;22.75;60.71;100915.56;107353;1254;97973;-66
2023/08/26 05:35:48;;;;;;;19.30;7.70;;;;;;;22.81;60.52;100920.41;107411;1254;111861;-68
2023/08/26 05:38:17;;;;;;;28.30;9.00;;;;;;;22.85;60.15;100919.73;107330;1256;109995;-67
2023/08/26 05:40:45;;;;;;;20.00;8.10;;;;;;;22.86;59.31;100916.13;107375;1254;108301;-67
2023/08/26 05:43:13;;;;;;;17.30;7.70;;;;;;;22.88;59.37;100917.10;107376;1256;97722;-66
2023/08/26 05:45:41;;;;;;;15.10;7.60;;;;;;;22.93;59.30;100914.34;107424;1254;97769;-67
2023/08/26 05:48:10;;;;;;;14.30;7.50;;;;;;;23.01;59.17;100913.54;107338;1254;110767;-67
2023/08/26 05:50:38;;;;;;;21.10;8.50;;;;;;;23.07;58.77;100907.59;107321;1254;110734;-66
2023/08/26 05:53:06;;;;;;;17.60;8.20;;;;;;;23.13;58.66;100899.29;107364;1256;109117;-68
2023/08/26 05:55:35;;;;;;;19.40;7.70;;;;;;;23.20;58.45;100899.52;107460;1256;97823;-67
2023/08/26 05:58:04;;;;;;;21.10;7.90;;;;;;;23.26;58.30;100902.27;107435;1259;97969;-66
2023/08/26 06:00:33;;;;;;;24.20;7.60;;;;;;;23.33;57.46;100905.80;107280;1254;111779;-66
2023/08/26 06:03:02;;;;;;;20.10;7.40;;;;;;;23.38;56.88;100905.77;107371;1254;108809;-66
2023/08/26 06:05:31;;;;;;;16.10;6.90;;;;;;;23.43;56.81;100905.33;107298;1254;107567;-68
2023/08/26 06:07:59;;;;;;;21.20;12.50;;;;;;;23.51;56.77;100909.27;107322;1254;97873;-68
2023/08/26 06:10:27;;;;;;;19.50;7.50;;;;;;;23.57;56.56;100911.77;107312;1254;99183;-66
2023/08/26 06:12:57;;;;;;;22.40;8.30;;;;;;;23.66;55.92;100913.40;107376;1257;111216;-69
2023/08/26 06:15:28;;;;;;;16.30;7.70;;;;;;;23.73;55.34;100906.94;107189;1256;109185;-64
2023/08/26 06:17:56;;;;;;;19.30;7.20;;;;;;;23.81;55.11;100907.19;107289;1254;108769;-67
2023/08/26 06:20:26;;;;;;;23.00;7.00;;;;;;;23.87;55.11;100905.55;107441;1254;97816;-68
2023/08/26 06:22:55;;;;;;;14.70;6.40;;;;;;;23.94;54.91;100903.48;107414;1257;97838;-68
2023/08/26 06:25:23;;;;;;;14.90;6.80;;;;;;;24.00;54.63;100909.20;107375;1254;113344;-67
2023/08/26 06:27:52;;;;;;;27.90;7.10;;;;;;;24.08;54.65;100908.09;107400;1256;109979;-66
2023/08/26 06:30:23;;;;;;;13.90;6.30;;;;;;;24.15;54.70;100913.23;107320;1258;108082;-67
2023/08/26 06:32:53;;;;;;;12.90;5.90;;;;;;;24.23;54.37;100910.17;107338;1256;97969;-67
2023/08/26 06:35:26;;;;;;;15.50;6.70;;;;;;;24.30;53.93;100916.13;107282;1257;97781;-67
2023/08/26 06:37:55;;;;;;;16.60;6.70;;;;;;;24.37;53.07;100922.02;107291;1256;112121;-67
2023/08/26 06:40:24;;;;;;;17.70;6.10;;;;;;;24.45;52.05;100920.95;107451;1254;109006;-68
2023/08/26 06:42:52;;;;;;;17.70;6.70;;;;;;;24.53;52.02;100920.06;107233;1260;108322;-68
2023/08/26 06:45:23;;;;;;;12.20;6.70;;;;;;;24.64;52.07;100923.31;107338;1255;97832;-66
2023/08/26 06:47:52;;;;;;;23.10;7.20;;;;;;;24.72;51.61;100920.58;107382;1257;97864;-67
2023/08/26 06:50:21;;;;;;;23.00;6.60;;;;;;;24.81;51.09;100919.82;107237;1257;110578;-65
2023/08/26 06:52:51;;;;;;;22.00;7.70;;;;;;;24.90;50.88;100919.14;107371;1256;109931;-67
2023/08/26 06:55:19;;;;;;;17.10;9.30;;;;;;;24.98;51.08;100918.23;107411;1254;108616;-67
2023/08/26 06:57:48;;;;;;;16.50;7.30;;;;;;;25.05;50.66;100919.83;107359;1256;97832;-68
2023/08/26 07:00:18;;;;;;;21.90;7.00;;;;;;;25.12;50.39;100922.95;107369;1257;98414;-69
2023/08/26 07:02:46;;;;;;;19.20;6.30;;;;;;;25.21;50.25;100926.02;107403;1255;111419;-66
2023/08/26 07:05:15;;;;;;;31.80;7.40;;;;;;;25.30;50.39;100921.33;107391;1257;109805;-66
2023/08/26 07:07:43;;;;;;;15.00;6.40;;;;;;;25.40;50.53;100921.23;107374;1254;108086;-65
2023/08/26 07:10:11;;;;;;;14.30;6.10;;;;;;;25.49;50.67;100930.14;107341;1254;98194;-65
2023/08/26 07:12:39;;;;;;;13.50;5.80;;;;;;;25.59;50.45;100931.64;107376;1259;97849;-66
2023/08/26 07:15:07;;;;;;;24.90;6.70;;;;;;;25.71;49.95;100929.52;107373;1257;111788;-66
2023/08/26 07:17:36;;;;;;;19.90;7.30;;;;;;;25.81;49.04;100926.62;107433;1257;108643;-67
2023/08/26 07:20:05;;;;;;;15.20;7.10;;;;;;;25.90;48.86;100923.00;107415;1257;107739;-67
2023/08/26 07:22:34;;;;;;;24.70;6.70;;;;;;;25.99;48.88;100921.19;107396;1255;97768;-68
2023/08/26 07:25:02;;;;;;;25.30;7.30;;;;;;;26.06;48.78;100915.64;107275;1256;97883;-66
2023/08/26 07:27:31;;;;;;;20.40;6.30;;;;;;;26.15;48.80;100909.00;107425;1254;111879;-67
2023/08/26 07:30:00;;;;;;;23.80;7.00;;;;;;;26.25;48.60;100912.05;107428;1257;109987;-67
2023/08/26 07:32:28;;;;;;;18.50;7.50;;;;;;;26.36;48.28;100912.81;107365;1256;107852;-66
2023/08/26 07:34:57;;;;;;;18.10;7.00;;;;;;;26.44;47.95;100913.17;107390;1257;97833;-68
2023/08/26 07:37:25;;;;;;;16.90;6.70;;;;;;;26.53;48.02;100913.23;107349;1256;97803;-66
2023/08/26 07:39:54;;;;;;;26.80;6.60;;;;;;;26.63;47.91;100915.00;107396;1253;111406;-68
2023/08/26 07:42:23;;;;;;;19.90;6.60;;;;;;;26.72;47.85;100917.59;107340;1257;109683;-66
2023/08/26 07:44:51;;;;;;;13.90;5.90;;;;;;;26.81;47.07;100917.81;107444;1257;108608;-67
2023/08/26 07:47:20;;;;;;;16.50;6.30;;;;;;;26.93;47.03;100915.20;107276;1257;97879;-68
2023/08/26 07:49:49;;;;;;;16.80;6.70;;;;;;;27.04;46.69;100914.84;107376;1256;97838;-70
2023/08/26 07:52:18;;;;;;;17.40;7.20;;;;;;;27.15;46.81;100915.45;107408;1254;111454;-66
2023/08/26 07:54:46;;;;;;;25.10;6.50;;;;;;;27.27;46.81;100916.14;107407;1254;109641;-69
2023/08/26 07:57:14;;;;;;;15.10;5.60;;;;;;;27.40;46.77;100912.16;107368;1257;107309;-67
2023/08/26 07:59:43;;;;;;;13.00;6.20;;;;;;;27.52;46.08;100906.61;107376;1254;97915;-67
2023/08/26 08:02:11;;;;;;;11.60;5.70;;;;;;;27.65;45.43;100901.17;107330;1254;98385;-67
2023/08/26 08:04:39;;;;;;;15.20;6.00;;;;;;;27.75;45.28;100899.86;107381;1254;111229;-68
2023/08/26 08:07:07;;;;;;;22.20;5.80;;;;;;;27.85;45.20;100894.35;107376;1254;109223;-68
2023/08/26 08:09:36;;;;;;;14.70;5.80;;;;;;;27.98;44.69;100894.34;107382;1256;108482;-67
2023/08/26 08:12:05;;;;;;;17.20;5.80;;;;;;;28.10;43.87;100892.77;107426;1254;97860;-67
2023/08/26 08:14:33;;;;;;;19.30;5.50;;;;;;;28.22;44.10;100887.81;107387;1258;97705;-67
2023/08/26 08:17:03;;;;;;;17.90;5.70;;;;;;;28.36;43.26;100894.11;107413;1256;111294;-67
2023/08/26 08:19:36;;;;;;;19.90;5.60;;;;;;;28.48;42.86;100888.86;107413;1257;109030;-67
2023/08/26 08:22:05;;;;;;;13.60;5.70;;;;;;;28.62;42.86;100887.75;107403;1254;108657;-67
2023/08/26 08:24:33;;;;;;;11.60;5.70;;;;;;;28.76;42.54;100887.08;107390;1257;97812;-66
2023/08/26 08:27:02;;;;;;;13.90;5.70;;;;;;;28.88;42.39;100882.05;107401;1257;99538;-66
2023/08/26 08:29:30;;;;;;;10.40;5.60;;;;;;;29.06;42.44;100884.27;107398;1256;110682;-67
2023/08/26 08:32:01;;;;;;;14.30;5.90;;;;;;;29.25;42.85;100889.17;107416;1254;110847;-68
2023/08/26 08:34:29;;;;;;;7.80;4.90;;;;;;;29.46;42.52;100887.09;107400;1254;107124;-70
2023/08/26 08:36:57;;;;;;;14.30;6.00;;;;;;;29.64;41.35;100884.47;107378;1257;97844;-67
2023/08/26 08:39:26;;;;;;;16.20;4.90;;;;;;;29.82;41.22;100885.07;107417;1258;98370;-67
2023/08/26 08:41:55;;;;;;;14.60;5.50;;;;;;;30.02;40.53;100883.39;107418;1254;112033;-66
2023/08/26 08:44:26;;;;;;;12.30;5.40;;;;;;;30.14;40.10;100877.89;107408;1255;109594;-66
2023/08/26 08:46:56;;;;;;;14.50;6.60;;;;;;;30.30;40.80;100873.45;107385;1254;106990;-66
2023/08/26 08:49:24;;;;;;;16.50;6.20;;;;;;;30.49;40.64;100873.59;107362;1256;97848;-66
2023/08/26 08:51:54;;;;;;;10.80;5.30;;;;;;;30.66;40.06;100875.93;107419;1254;97832;-67
2023/08/26 08:54:23;;;;;;;10.50;4.90;;;;;;;30.83;39.67;100869.70;107349;1254;111921;-67
2023/08/26 08:56:52;;;;;;;16.70;5.10;;;;;;;31.01;39.74;100865.27;107383;1257;109283;-66
2023/08/26 08:59:22;;;;;;;14.70;4.80;;;;;;;31.22;39.79;100865.49;107365;1254;107851;-67
2023/08/26 09:01:54;;;;;;;14.60;5.70;;;;;;;31.40;38.70;100866.65;107430;1254;97834;-67
2023/08/26 09:04:24;;;;;;;12.30;5.50;;;;;;;31.57;38.75;100860.84;107405;1254;97861;-67
2023/08/26 09:06:53;;;;;;;11.30;4.70;;;;;;;31.79;38.36;100863.91;107403;1253;112451;-64
2023/08/26 09:09:22;;;;;;;14.80;4.70;;;;;;;32.01;37.64;100868.02;107394;1256;108254;-68
2023/08/26 09:12:02;;;;;;;12.60;5.40;;;;;;;32.24;37.15;100864.34;107374;1254;107742;-67
2023/08/26 09:14:30;;;;;;;11.90;5.60;;;;;;;32.48;36.21;100866.49;107398;1257;97846;-67
2023/08/26 09:17:14;;;;;;;15.70;5.70;;;;;;;32.75;36.39;100866.88;107352;1258;98380;-66
2023/08/26 09:19:53;;;;;;;12.30;5.00;;;;;;;33.04;35.90;100860.92;107413;1256;112168;-67
2023/08/26 09:22:32;;;;;;;7.70;4.40;;;;;;;33.38;34.99;100859.83;107429;1254;109260;-67
2023/08/26 09:25:03;;;;;;;15.90;4.90;;;;;;;33.71;34.26;100857.09;107367;1254;108354;-67
2023/08/26 09:27:41;;;;;;;17.20;4.60;;;;;;;34.10;34.00;100855.35;107382;1256;97821;-67
2023/08/26 09:30:10;;;;;;;11.50;4.90;;;;;;;34.59;33.42;100847.61;107394;1254;97957;-67
2023/08/26 09:32:43;;;;;;;19.70;5.30;;;;;;;35.07;31.55;100854.58;107408;1254;111852;-66
2023/08/26 09:35:14;;;;;;;9.30;3.90;;;;;;;35.62;31.68;100848.21;107352;1254;110129;-64
2023/08/26 09:38:04;;;;;;;6.90;4.20;;;;;;;36.42;31.03;100842.55;107397;1257;107769;-67
2023/08/26 09:40:33;;;;;;;13.80;4.30;;;;;;;37.10;30.28;100843.87;107338;1256;97858;-68
2023/08/26 09:43:06;;;;;;;12.10;3.90;;;;;;;37.70;29.27;100846.66;107448;1254;97707;-67
2023/08/26 09:45:36;;;;;;;8.00;4.20;;;;;;;38.18;27.82;100840.88;107349;1254;111885;-67
2023/08/26 09:48:05;;;;;;;11.20;4.40;;;;;;;38.53;27.22;100841.75;107371;1257;109286;-66
2023/08/26 09:50:34;;;;;;;7.90;4.60;;;;;;;38.87;27.04;100836.29;107393;1256;107671;-69
2023/08/26 09:53:03;;;;;;;8.10;4.30;;;;;;;39.36;26.76;100834.50;107379;1257;97874;-67
2023/08/26 09:55:32;;;;;;;8.20;4.10;;;;;;;39.73;25.50;100834.96;107010;1254;474609;-67
2023/08/26 09:58:00;;;;;;;12.60;4.70;;;;;;;40.12;25.43;100834.53;107401;1253;111492;-66
2023/08/26 10:00:30;;;;;;;9.50;4.50;;;;;;;40.43;24.98;100834.29;107314;1258;110126;-67
2023/08/26 10:03:06;;;;;;;11.10;4.30;;;;;;;40.84;25.05;100831.34;107390;1256;108017;-66
2023/08/26 10:05:39;;;;;;;12.90;4.00;;;;;;;41.27;24.31;100830.02;107399;1256;97831;-67
2023/08/26 10:08:10;;;;;;;11.60;4.40;;;;;;;41.76;23.78;100830.17;107253;1257;97900;-67
2023/08/26 10:10:52;;;;;;;14.60;4.30;;;;;;;42.14;23.28;100827.55;107420;1257;111436;-68
2023/08/26 10:13:24;;;;;;;14.10;3.80;;;;;;;42.41;23.20;100822.59;107346;1257;110016;-67
2023/08/26 10:15:55;;;;;;;7.30;3.70;;;;;;;42.69;22.24;100820.03;107402;1254;108168;-67
2023/08/26 10:18:38;;;;;;;9.90;3.80;;;;;;;42.85;20.98;100825.70;107344;1257;97731;-67
2023/08/26 10:21:07;;;;;;;14.50;3.90;;;;;;;42.72;20.95;100826.09;107351;1257;98344;-67
2023/08/26 10:23:37;;;;;;;12.80;3.90;;;;;;;43.02;20.83;100827.05;107398;1255;111849;-68
2023/08/26 10:26:07;;;;;;;16.10;3.70;;;;;;;43.33;20.75;100822.99;107365;1254;110412;-67
2023/08/26 10:28:37;;;;;;;11.10;3.30;;;;;;;43.77;21.10;100822.86;107357;1257;107646;-68
2023/08/26 10:31:09;;;;;;;6.90;3.40;;;;;;;43.97;18.67;100825.00;107385;1257;97919;-68
2023/08/26 10:34:15;;;;;;;4.80;2.80;;;;;;;43.58;17.93;100825.55;107430;1254;97949;-67
2023/08/26 10:36:48;;;;;;;8.50;3.40;;;;;;;43.11;18.65;100825.45;107479;1257;112010;-68
2023/08/26 10:39:21;;;;;;;5.60;2.80;;;;;;;43.27;19.16;100815.34;107389;1253;109072;-66
2023/08/26 10:42:23;;;;;;;4.10;2.50;;;;;;;43.85;19.01;100817.65;107291;1254;106708;-65
2023/08/26 10:44:55;;;;;;;;;;;;;;;44.37;17.96;100821.36;107026;1257;97842;-66
2023/08/26 10:47:34;;;;;;;5.60;2.60;;;;;;;44.61;18.08;100818.63;107473;1254;98488;-67
2023/08/26 10:50:18;;;;;;;5.70;3.00;;;;;;;45.01;17.34;100817.92;107379;1257;111272;-66
2023/08/26 10:52:59;;;;;;;6.50;3.00;;;;;;;45.23;16.75;100815.34;107447;1254;109637;-66
2023/08/26 10:55:33;;;;;;;4.60;2.20;;;;;;;45.19;16.88;100817.60;107391;1253;108244;-68
2023/08/26 10:58:10;;;;;;;10.40;2.80;;;;;;;45.24;17.46;100806.20;107382;1257;97835;-68
2023/08/26 11:00:40;;;;;;;7.80;2.90;;;;;;;45.68;17.73;100801.79;107371;1257;97751;-64
2023/08/26 11:03:10;;;;;;;7.80;2.90;;;;;;;46.14;16.78;100797.45;107356;1257;111196;-66
2023/08/26 11:05:43;;;;;;;3.50;2.60;;;;;;;46.35;16.35;100796.17;107431;1257;109905;-67
2023/08/26 11:08:12;;;;;;;6.90;2.30;;;;;;;46.51;16.35;100792.69;107353;1257;108177;-66
2023/08/26 11:10:42;;;;;;;4.30;2.20;;;;;;;46.63;15.95;100788.72;107395;1257;97747;-67
2023/08/26 11:13:11;;;;;;;4.90;2.10;;;;;;;46.78;15.65;100784.80;107371;1256;97713;-67
2023/08/26 11:15:41;;;;;;;5.90;2.30;;;;;;;46.98;15.41;100782.64;107403;1257;111585;-70
2023/08/26 11:18:11;;;;;;;7.80;2.50;;;;;;;47.07;15.34;100777.38;107390;1257;109130;-67